• Join FlightAware (Why Join?)
  • Login
  • US Flag 
01:39AM EDT


 

Airport Tracker/Info


-or-


 

Live Flight TrackerFlight Track Log ✈ JBU1276 ✈ 06-May-2013 ✈ KCHS - KJFK

Flight Track Log - Related Links

Times and Time Zones

All times are in EDT time to prevent confusion due to time zone crossing. See the JBU1276 flight status page for this flight to view local times or setup timezone preferences in your user account.

Time Position Orientation Groundspeed Altitude Reporting Facility
EDT Latitude Longitude Course Direction KTS MPH feet Rate Location/Type
05:21PM 33.1092 -79.5126 54° Northeast  Level FlightAware Approximate
05:21PM 32.9397 -79.8408 27° Northeast 244 281 8,600  Level Jacksonville Center
05:22PM 33.1828 -79.3925 51° Northeast  Level FlightAware Approximate
05:23PM 33.2833 -79.3073 31° Northeast  Level FlightAware Approximate
05:23PM 33.0478 -79.6561 55° Northeast 329 379 13,100  Level Jacksonville Center
05:24PM 33.3902 -79.2309 31° Northeast  Level FlightAware Approximate
05:24PM 33.1056 -79.5500 57° Northeast 365 420 15,300  Level Jacksonville Center
05:25PM 33.5009 -79.1625 25° Northeast  Level FlightAware Approximate
05:25PM 33.1692 -79.4333 57° Northeast 391 450 17,900  Level Jacksonville Center
05:26PM 33.6132 -79.0980 27° Northeast  Level FlightAware Approximate
05:26PM 33.2542 -79.3381 43° Northeast 407 468 20,000  Level Jacksonville Center
05:27PM 33.3608 -79.2669 29° Northeast 417 480 21,900 1,800 Climbing Jacksonville Center
05:28PM 33.4733 -79.1950 28° Northeast 429 494 23,700 1,800 Climbing Jacksonville Center
05:29PM 33.5797 -79.1183 31° Northeast 443 510 25,500 1,620 Climbing Jacksonville Center
05:30PM 33.6767 -79.0117 42° Northeast 454 522 27,000 1,620 Climbing Jacksonville Center
05:32PM 33.8764 -78.7978 42° Northeast 475 547 30,400 1,560 Climbing Jacksonville Center
05:33PM 33.9817 -78.7003 38° Northeast 475 547 31,800 1,260 Climbing Jacksonville Center
05:34PM 34.1389 -78.5778 33° Northeast 486 559 33,800 1,260 Climbing Washington Center
05:35PM 34.2472 -78.4886 34° Northeast 474 545 35,200 900 Climbing Washington Center
05:36PM 34.3536 -78.4019 34° Northeast 469 540 35,700 540 Climbing Washington Center
05:37PM 34.4642 -78.3150 33° Northeast 469 540 36,300 600 Climbing Washington Center
05:38PM 34.5769 -78.2203 35° Northeast 475 547 37,000 300 Climbing Washington Center
05:39PM 34.6875 -78.1306 34° Northeast 475 547 37,000  Level Washington Center
05:40PM 34.8019 -78.0381 34° Northeast 475 547 37,000  Level Washington Center
05:41PM 34.9314 -77.9353 33° Northeast 475 547 37,000  Level Washington Center
05:42PM 35.0478 -77.8500 31° Northeast 495 570 37,000  Level Washington Center
05:43PM 35.1642 -77.7617 32° Northeast 490 564 37,000  Level Washington Center
05:44PM 35.2825 -77.6733 31° Northeast 490 564 37,000  Level Washington Center
05:45PM 35.3989 -77.5847 32° Northeast 490 564 37,000  Level Washington Center
05:47PM 35.5143 -77.4958 32° Northeast  Level FlightAware Approximate
05:48PM 35.7450 -77.3194 32° Northeast 485 558 37,000  Level Washington Center
05:49PM 35.8569 -77.2297 33° Northeast 485 558 37,000  Level Washington Center
05:50PM 35.9686 -77.1447 32° Northeast 485 558 37,000  Level Washington Center
05:52PM 36.0835 -77.0543 32° Northeast  Level FlightAware Approximate
05:52PM 36.1919 -76.9689 32° Northeast 478 550 37,000  Level Washington Center
05:53PM 36.3056 -76.8808 32° Northeast 478 550 37,000  Level Washington Center
05:54PM 36.1953 -76.9645 32° Northeast  Level FlightAware Approximate
05:54PM 36.4214 -76.7897 32° Northeast 478 550 37,000  Level Washington Center
05:55PM 36.5369 -76.6983 32° Northeast 478 550 37,000  Level Washington Center
05:56PM 36.6483 -76.6119 32° Northeast 478 550 37,000  Level Washington Center
05:57PM 36.7594 -76.5200 34° Northeast 478 550 37,000  Level Washington Center
05:59PM 36.9756 -76.3433 33° Northeast 483 556 37,000  Level Washington Center
06:02PM 37.1836 -76.1712 34° Northeast  Level FlightAware Approximate
06:02PM 37.3339 -76.0619 34° Northeast 488 562 37,000  Level Washington Center
06:03PM 37.4531 -75.9764 30° Northeast 488 562 37,000  Level Washington Center
06:04PM 37.5575 -75.9036 29° Northeast 483 556 37,000  Level Washington Center
06:06PM 37.6759 -75.8188 30° Northeast  Level FlightAware Approximate
06:06PM 37.7956 -75.7336 30° Northeast 483 556 37,000  Level Washington Center
06:07PM 37.9144 -75.6550 28° Northeast 478 550 37,000  Level Washington Center
06:08PM 38.0314 -75.5681 30° Northeast 478 550 37,000 -360 Level Washington Center
06:09PM 38.1439 -75.4808 31° Northeast 478 550 36,400 -840 Descending Washington Center
06:10PM 38.2647 -75.4092 25° Northeast 473 544 35,400 -720 Descending Washington Center
06:11PM 38.3731 -75.3217 32° Northeast 463 533 35,000 -240 Descending Washington Center
06:12PM 38.4853 -75.2389 30° Northeast 458 527 35,000  Level Washington Center
06:13PM 38.5978 -75.1614 28° Northeast 458 527 35,000  Level Washington Center
06:14PM 38.7119 -75.0808 29° Northeast 458 527 35,000 -600 Level Washington Center
06:15PM 38.8222 -75.0000 30° Northeast 458 527 33,900 -1,380 Descending Washington Center
06:16PM 38.9364 -74.9164 30° Northeast 458 527 32,300 -1,680 Descending Washington Center
06:17PM 39.0483 -74.8378 30° Northeast 458 527 30,600 -1,860 Descending Washington Center
06:18PM 39.0550 -74.8213 30° Northeast  Level FlightAware Approximate
06:18PM 39.1561 -74.7378 36° Northeast 463 533 28,600  Level Washington Center
06:20PM 39.2514 -74.6122 40° Northeast  Level FlightAware Approximate
06:23PM 39.6036 -74.2492 21° North 417 480 18,000  Level New York Center
06:25PM 39.7096 -74.1106 49° Northeast  Level FlightAware Approximate
06:27PM 39.8807 -73.9462 27° Northeast  Level FlightAware Approximate
06:27PM 39.9000 -73.9333 North 352 405 11,800  Level New York TRACON
06:27PM 39.9342 -73.9192 18° North 353 406 11,200 -600 Descending New York Center
06:28PM 39.9842 -73.8772 27° Northeast  Level FlightAware Approximate
06:28PM 40.0039 -73.8764 25° Northeast 324 373 11,000  Level New York Center
06:29PM 40.0845 -73.8411 21° North  Level FlightAware Approximate
06:29PM 40.0886 -73.8286 23° Northeast 294 338 11,000  Level New York Center
06:30PM 40.1564 -73.7828 27° Northeast 280 322 9,100 -1,980 Descending New York Center
06:31PM 40.2000 -73.7500 30° Northeast 283 326 7,900 -1,920 Descending New York TRACON
06:32PM 40.4498 -73.8000 North  Level FlightAware Approximate
06:33PM 40.5652 -73.7803 North  Level FlightAware Approximate
06:33PM 40.3414 -73.8889 323° Northwest 273 314 3,500  Level New York Center
06:34PM 40.3833 -73.9500 312° West 275 316 3,000 -360 Descending New York TRACON
06:35PM 40.4333 -74.0000 323° Northwest 277 319 3,000  Level New York TRACON
06:36PM 40.5000 -73.9833 11° North 244 281 3,000 -240 Level New York TRACON
06:37PM 40.5500 -73.9333 37° Northeast 223 257 2,600 -720 Descending New York TRACON
06:38PM 40.6000 -73.9000 27° Northeast 166 191 1,500 -720 Descending New York TRACON
06:39PM 40.6333 -73.8667 37° Northeast 139 160 1,200 -300 Descending New York TRACON
06:40PM 40.6667 -73.8333 37° Northeast 132 152 900 -300 Descending New York TRACON